createdAt,value
2023-01-19T00:02:42.118Z,4.81
2023-01-19T00:05:44.743Z,4.89
2023-01-19T00:08:48.992Z,4.88
2023-01-19T00:11:51.407Z,4.90
2023-01-19T00:14:53.540Z,4.84
2023-01-19T00:17:55.791Z,4.89
2023-01-19T00:21:00.524Z,4.86
2023-01-19T00:24:02.900Z,4.89
2023-01-19T00:27:04.919Z,4.76
2023-01-19T00:30:08.025Z,4.76
2023-01-19T00:33:11.580Z,4.81
2023-01-19T00:36:13.845Z,4.77
2023-01-19T00:39:16.298Z,4.76
2023-01-19T00:42:36.598Z,4.72
2023-01-19T00:45:38.677Z,4.74
2023-01-19T00:48:41.365Z,4.70
2023-01-19T00:51:44.589Z,4.61
2023-01-19T00:54:46.958Z,4.63
2023-01-19T00:57:49.441Z,4.56
2023-01-19T01:00:53.937Z,4.49
2023-01-19T01:03:56.260Z,4.49
2023-01-19T01:07:01.309Z,4.46
2023-01-19T01:10:03.911Z,4.48
2023-01-19T01:13:20.488Z,4.52
2023-01-19T01:16:23.381Z,4.53
2023-01-19T01:19:25.914Z,4.43
2023-01-19T01:22:28.295Z,4.49
2023-01-19T01:25:31.759Z,4.40
2023-01-19T01:28:33.908Z,4.32
2023-01-19T01:31:38.861Z,4.38
2023-01-19T01:34:41.599Z,4.32
2023-01-19T01:37:44.060Z,4.27
2023-01-19T01:40:46.333Z,4.29
2023-01-19T01:43:57.602Z,4.21
2023-01-19T01:47:00.160Z,4.21
2023-01-19T01:50:22.463Z,4.20
2023-01-19T01:53:24.728Z,4.15
2023-01-19T01:56:34.572Z,4.14
2023-01-19T01:59:42.595Z,4.09
2023-01-19T02:02:51.455Z,4.05
2023-01-19T02:05:59.532Z,4.01
2023-01-19T02:09:29.202Z,4.03
2023-01-19T02:12:49.969Z,4.03
2023-01-19T02:16:01.154Z,3.95
2023-01-19T02:19:05.869Z,3.97
2023-01-19T02:22:18.059Z,3.95
2023-01-19T02:25:21.951Z,3.91
2023-01-19T02:28:26.149Z,3.97
2023-01-19T02:31:32.191Z,3.90
2023-01-19T02:34:35.443Z,3.92
2023-01-19T02:37:41.525Z,3.86
2023-01-19T02:40:46.091Z,3.86
2023-01-19T02:43:50.035Z,3.88
2023-01-19T02:46:54.710Z,3.87
2023-01-19T02:50:00.928Z,3.79
2023-01-19T02:53:47.658Z,3.76
2023-01-19T02:56:49.708Z,3.81
2023-01-19T03:00:18.145Z,3.88
2023-01-19T03:03:32.889Z,3.89
2023-01-19T03:07:10.736Z,3.88
2023-01-19T03:10:20.715Z,3.77
2023-01-19T03:13:54.042Z,3.68
2023-01-19T03:17:01.323Z,3.67
2023-01-19T03:20:05.940Z,3.62
2023-01-19T03:23:11.373Z,3.68
2023-01-19T03:26:19.248Z,3.61
2023-01-19T03:29:24.978Z,3.63
2023-01-19T03:32:36.454Z,3.64
2023-01-19T03:35:45.056Z,3.61
2023-01-19T03:38:51.091Z,3.57
2023-01-19T03:41:58.871Z,3.55
2023-01-19T03:45:02.058Z,3.50
2023-01-19T03:48:05.749Z,3.50
2023-01-19T03:51:09.737Z,3.44
2023-01-19T03:54:12.299Z,3.45
2023-01-19T03:57:14.550Z,3.45
2023-01-19T04:00:18.243Z,3.50
2023-01-19T04:03:20.628Z,3.47
2023-01-19T04:06:27.022Z,3.45
2023-01-19T04:09:29.703Z,3.45
2023-01-19T04:12:32.659Z,3.39
2023-01-19T04:15:34.771Z,3.37
2023-01-19T04:18:37.616Z,3.37
2023-01-19T04:21:40.284Z,3.35
2023-01-19T04:24:45.271Z,3.37
2023-01-19T04:27:47.426Z,3.36
2023-01-19T04:30:55.062Z,3.46
2023-01-19T04:33:57.259Z,3.35
2023-01-19T04:37:02.315Z,3.35
2023-01-19T04:40:04.977Z,3.24
2023-01-19T04:43:09.935Z,3.30
2023-01-19T04:46:11.970Z,3.40
2023-01-19T04:49:16.344Z,3.39
2023-01-19T04:52:18.311Z,3.32
2023-01-19T04:55:20.253Z,3.30
2023-01-19T04:58:22.483Z,3.31
2023-01-19T05:01:24.972Z,3.22
2023-01-19T05:04:27.389Z,3.24
2023-01-19T05:07:29.435Z,3.27
2023-01-19T05:10:31.466Z,3.25
2023-01-19T05:13:36.530Z,3.27
2023-01-19T05:16:38.517Z,3.24
2023-01-19T05:19:41.710Z,3.21
2023-01-19T05:22:48.977Z,3.25
2023-01-19T05:25:50.955Z,3.29
2023-01-19T05:28:53.161Z,3.33
2023-01-19T05:31:55.186Z,3.29
2023-01-19T05:34:57.292Z,3.32
2023-01-19T05:37:59.165Z,3.32
2023-01-19T05:41:03.038Z,3.35
2023-01-19T05:44:06.585Z,3.40
2023-01-19T05:47:11.021Z,3.40
2023-01-19T05:50:13.036Z,3.46
2023-01-19T05:53:16.747Z,3.40
2023-01-19T05:56:18.703Z,3.40
2023-01-19T05:59:25.878Z,3.45
2023-01-19T06:02:30.186Z,3.49
2023-01-19T06:05:33.053Z,3.48
2023-01-19T06:08:50.299Z,3.55
2023-01-19T06:12:01.634Z,3.63
2023-01-19T06:15:04.065Z,3.56
2023-01-19T06:18:06.317Z,3.57
2023-01-19T06:21:10.277Z,3.58
2023-01-19T06:24:13.833Z,3.52
2023-01-19T06:27:17.659Z,3.55
2023-01-19T06:30:20.354Z,3.58
2023-01-19T06:33:24.307Z,3.57
2023-01-19T06:36:31.019Z,3.49
2023-01-19T06:39:33.273Z,3.56
2023-01-19T06:42:35.678Z,3.75
2023-01-19T06:45:44.089Z,3.74
2023-01-19T06:48:48.577Z,3.65
2023-01-19T06:52:06.849Z,3.65
2023-01-19T06:55:16.576Z,3.62
2023-01-19T06:58:20.368Z,3.57
2023-01-19T07:01:24.244Z,3.63
2023-01-19T07:04:30.818Z,3.68
2023-01-19T07:11:33.447Z,3.56
2023-01-19T07:19:47.848Z,3.49
2023-01-19T07:23:03.687Z,3.70
2023-01-19T07:26:15.683Z,3.73
2023-01-19T07:29:58.059Z,3.95
2023-01-19T07:33:04.100Z,3.88
2023-01-19T07:36:09.361Z,3.86
2023-01-19T07:39:13.524Z,3.78
2023-01-19T07:46:57.822Z,3.88
2023-01-19T07:50:58.607Z,4.10
2023-01-19T07:54:23.505Z,3.84
2023-01-19T07:57:26.152Z,4.09
2023-01-19T08:16:47.437Z,4.23
2023-01-19T08:20:08.388Z,4.14
2023-01-19T08:23:36.366Z,4.14
2023-01-19T08:31:57.692Z,4.37
2023-01-19T08:45:16.579Z,4.58
2023-01-19T08:48:27.861Z,4.46
2023-01-19T09:01:25.197Z,4.37
2023-01-19T09:05:01.375Z,4.52
2023-01-19T09:18:35.005Z,4.34
2023-01-19T09:26:20.477Z,4.34
2023-01-19T09:29:41.086Z,4.47
2023-01-19T09:33:12.479Z,4.39
2023-01-19T09:36:28.647Z,4.28
2023-01-19T09:39:48.479Z,4.30
2023-01-19T09:43:30.766Z,4.65
2023-01-19T09:47:02.411Z,4.66
2023-01-19T09:54:19.486Z,4.36
2023-01-19T09:57:40.482Z,4.24
2023-01-19T10:00:59.310Z,4.18
2023-01-19T10:04:54.176Z,4.14
2023-01-19T10:17:40.468Z,3.99
2023-01-19T10:21:27.880Z,3.96
2023-01-19T10:25:13.077Z,3.87
2023-01-19T10:28:46.877Z,3.76
2023-01-19T10:32:13.590Z,3.60
2023-01-19T10:35:49.225Z,3.73
2023-01-19T10:42:42.748Z,3.69
2023-01-19T10:45:50.616Z,3.75
2023-01-19T10:49:14.584Z,3.66
2023-01-19T10:52:33.989Z,3.57
2023-01-19T10:56:20.493Z,3.65
2023-01-19T10:59:45.891Z,3.66
2023-01-19T11:03:09.213Z,3.54
2023-01-19T11:06:49.896Z,3.42
2023-01-19T11:10:24.286Z,3.42
2023-01-19T11:17:41.693Z,3.49
2023-01-19T11:21:06.931Z,3.55
2023-01-19T11:24:28.392Z,3.31
2023-01-19T11:29:06.820Z,3.32
2023-01-19T11:32:41.510Z,3.23
2023-01-19T11:37:01.044Z,3.33
2023-01-19T11:40:48.896Z,3.49
2023-01-19T11:45:03.749Z,3.52
2023-01-19T11:50:07.069Z,3.32
2023-01-19T11:53:37.220Z,3.54
2023-01-19T12:01:08.599Z,3.20
2023-01-19T12:04:41.487Z,3.36
2023-01-19T12:08:31.024Z,3.33
2023-01-19T12:16:15.606Z,3.40
2023-01-19T12:24:28.287Z,3.47
2023-01-19T12:27:51.450Z,3.49
2023-01-19T12:31:35.540Z,3.41
2023-01-19T12:35:05.341Z,3.40
2023-01-19T12:38:58.426Z,3.49
2023-01-19T12:42:38.072Z,3.25
2023-01-19T12:50:41.259Z,3.40
2023-01-19T12:58:20.577Z,3.32
2023-01-19T13:02:22.781Z,3.47
2023-01-19T13:05:33.629Z,3.57
2023-01-19T13:09:07.691Z,3.31
2023-01-19T13:12:22.373Z,3.35
2023-01-19T13:15:55.893Z,3.64
2023-01-19T13:19:24.898Z,3.61
2023-01-19T13:23:34.434Z,3.69
2023-01-19T13:27:02.457Z,3.63
2023-01-19T13:31:24.169Z,3.67
2023-01-19T13:34:47.463Z,3.83
2023-01-19T13:37:52.480Z,3.69
2023-01-19T13:41:00.707Z,3.50
2023-01-19T13:44:36.742Z,3.52
2023-01-19T13:47:53.327Z,3.38
2023-01-19T13:51:02.806Z,3.67
2023-01-19T13:54:17.289Z,3.68
2023-01-19T13:57:42.919Z,3.43
2023-01-19T14:00:47.819Z,3.45
2023-01-19T14:03:52.651Z,3.43
2023-01-19T14:07:15.261Z,3.49
2023-01-19T14:10:18.215Z,3.57
2023-01-19T14:13:35.436Z,3.45
2023-01-19T14:16:46.961Z,3.51
2023-01-19T14:19:58.698Z,3.55
2023-01-19T14:23:41.751Z,3.57
2023-01-19T14:26:54.324Z,3.39
2023-01-19T14:30:20.922Z,3.29
2023-01-19T14:33:55.693Z,3.36
2023-01-19T14:36:58.462Z,3.40
2023-01-19T14:40:13.927Z,3.44
2023-01-19T14:46:55.734Z,3.49
2023-01-19T14:50:07.969Z,3.28
2023-01-19T14:53:20.499Z,3.14
2023-01-19T14:56:28.653Z,3.12
2023-01-19T14:59:32.142Z,3.26
2023-01-19T15:02:34.910Z,3.12
2023-01-19T15:05:38.887Z,3.04
2023-01-19T15:08:42.691Z,3.12
2023-01-19T15:11:49.357Z,3.02
2023-01-19T15:14:51.340Z,3.01
2023-01-19T15:17:56.042Z,2.96
2023-01-19T15:21:03.123Z,3.00
2023-01-19T15:24:06.058Z,3.02
2023-01-19T15:27:11.975Z,2.96
2023-01-19T15:30:21.914Z,2.94
2023-01-19T15:33:27.297Z,3.01
2023-01-19T15:36:31.625Z,2.92
2023-01-19T15:39:33.845Z,2.89
2023-01-19T15:42:36.126Z,2.88
2023-01-19T15:45:50.889Z,3.00
2023-01-19T15:48:54.090Z,2.89
2023-01-19T15:51:57.463Z,2.92
2023-01-19T15:54:59.886Z,2.91
2023-01-19T15:58:01.756Z,2.86
2023-01-19T16:01:04.091Z,2.90
2023-01-19T16:04:08.118Z,2.97
2023-01-19T16:07:10.256Z,2.96
2023-01-19T16:10:12.920Z,2.95
2023-01-19T16:13:15.029Z,2.92
2023-01-19T16:16:20.074Z,3.01
2023-01-19T16:19:22.390Z,2.99
2023-01-19T16:22:33.149Z,2.96
2023-01-19T16:25:56.484Z,2.84
2023-01-19T16:29:08.974Z,2.79
2023-01-19T16:32:11.220Z,2.81
2023-01-19T16:35:18.490Z,2.76
2023-01-19T16:38:25.667Z,2.84
2023-01-19T16:41:29.207Z,2.75
2023-01-19T16:44:31.243Z,2.77
2023-01-19T16:47:34.947Z,2.82
2023-01-19T16:50:36.940Z,2.90
2023-01-19T16:53:39.289Z,2.92
2023-01-19T16:56:42.033Z,2.93
2023-01-19T16:59:45.231Z,2.95
2023-01-19T17:02:47.264Z,2.97
2023-01-19T17:05:52.170Z,2.81
2023-01-19T17:08:54.601Z,2.79
2023-01-19T17:11:58.405Z,2.87
2023-01-19T17:15:02.408Z,2.83
2023-01-19T17:18:05.198Z,2.90
2023-01-19T17:21:11.680Z,2.84
2023-01-19T17:24:14.040Z,2.79
2023-01-19T17:27:17.230Z,2.80
2023-01-19T17:30:20.430Z,2.88
2023-01-19T17:33:24.071Z,2.94
2023-01-19T17:36:27.763Z,2.79
2023-01-19T17:39:31.087Z,2.82
2023-01-19T17:42:33.038Z,2.83
2023-01-19T17:45:36.573Z,2.93
2023-01-19T17:48:39.278Z,2.80
2023-01-19T17:51:41.666Z,2.75
2023-01-19T17:54:47.237Z,2.70
2023-01-19T17:57:49.643Z,2.73
2023-01-19T18:00:51.915Z,2.87
2023-01-19T18:03:54.949Z,2.87
2023-01-19T18:06:57.235Z,2.84
2023-01-19T18:10:01.066Z,2.68
2023-01-19T18:13:03.412Z,2.59
2023-01-19T18:16:08.784Z,2.69
2023-01-19T18:19:11.480Z,2.82
2023-01-19T18:22:14.127Z,2.75
2023-01-19T18:25:17.552Z,2.75
2023-01-19T18:28:21.530Z,2.76
2023-01-19T18:31:25.079Z,2.59
2023-01-19T18:34:27.443Z,2.74
2023-01-19T18:37:30.113Z,2.61
2023-01-19T18:40:32.725Z,2.64
2023-01-19T18:43:35.039Z,2.54
2023-01-19T18:46:41.832Z,2.63
2023-01-19T18:49:44.615Z,2.63
2023-01-19T18:52:48.148Z,2.54
2023-01-19T18:55:58.706Z,2.43
2023-01-19T18:59:05.139Z,2.46
2023-01-19T19:02:09.503Z,2.58
2023-01-19T19:05:12.014Z,2.62
2023-01-19T19:08:15.593Z,2.49
2023-01-19T19:11:19.896Z,2.55
2023-01-19T19:14:22.340Z,2.39
2023-01-19T19:17:25.088Z,2.51
2023-01-19T19:20:28.506Z,2.39
2023-01-19T19:23:31.682Z,2.37
2023-01-19T19:26:34.920Z,2.35
2023-01-19T19:29:36.868Z,2.25
2023-01-19T19:32:39.528Z,2.36
2023-01-19T19:35:41.883Z,2.38
2023-01-19T19:38:47.752Z,2.42
2023-01-19T19:41:51.148Z,2.34
2023-01-19T19:44:54.997Z,2.31
2023-01-19T19:47:57.666Z,2.28
2023-01-19T19:51:18.606Z,2.45
2023-01-19T19:54:21.738Z,2.33
2023-01-19T19:57:26.239Z,2.24
2023-01-19T20:00:28.537Z,2.41
2023-01-19T20:03:31.190Z,2.38
2023-01-19T20:06:38.631Z,2.44
2023-01-19T20:09:40.845Z,2.39
2023-01-19T20:12:43.860Z,2.23
2023-01-19T20:15:46.018Z,2.14
2023-01-19T20:18:54.317Z,2.02
2023-01-19T20:21:58.148Z,2.22
2023-01-19T20:25:00.699Z,2.17
2023-01-19T20:28:02.895Z,2.06
2023-01-19T20:31:14.860Z,1.98
2023-01-19T20:34:19.428Z,2.04
2023-01-19T20:37:21.778Z,2.03
2023-01-19T20:40:24.033Z,2.02
2023-01-19T20:43:26.302Z,2.11
2023-01-19T20:46:28.552Z,1.93
2023-01-19T20:49:31.409Z,1.96
2023-01-19T20:52:36.031Z,1.86
2023-01-19T20:55:39.211Z,1.87
2023-01-19T20:58:42.180Z,1.97
2023-01-19T21:01:45.099Z,1.84
2023-01-19T21:04:47.890Z,1.78
2023-01-19T21:07:50.991Z,1.75
2023-01-19T21:10:57.068Z,1.79
2023-01-19T21:13:59.360Z,1.82
2023-01-19T21:17:01.572Z,1.79
2023-01-19T21:20:05.313Z,1.84
2023-01-19T21:23:07.521Z,1.96
2023-01-19T21:26:09.677Z,1.87
2023-01-19T21:29:14.652Z,1.77
2023-01-19T21:32:16.805Z,1.79
2023-01-19T21:35:18.632Z,1.75
2023-01-19T21:38:21.696Z,1.77
2023-01-19T21:41:23.959Z,1.78
2023-01-19T21:44:26.048Z,1.89
2023-01-19T21:47:28.065Z,2.03
2023-01-19T21:50:30.050Z,2.09
2023-01-19T21:53:31.933Z,2.32
2023-01-19T21:56:35.162Z,2.30
2023-01-19T21:59:37.500Z,2.38
2023-01-19T22:02:39.586Z,2.15
2023-01-19T22:05:42.411Z,2.25
2023-01-19T22:08:46.732Z,2.34
2023-01-19T22:11:48.883Z,2.41
2023-01-19T22:14:51.301Z,2.08
2023-01-19T22:17:53.619Z,2.32
2023-01-19T22:20:55.767Z,2.37
2023-01-19T22:23:59.999Z,2.50
2023-01-19T22:27:02.007Z,2.48
2023-01-19T22:30:04.276Z,2.17
2023-01-19T22:33:06.884Z,2.26
2023-01-19T22:36:17.472Z,2.27
2023-01-19T22:39:22.134Z,2.47
2023-01-19T22:42:24.145Z,2.35
2023-01-19T22:45:26.169Z,2.26
2023-01-19T22:48:28.182Z,2.22
2023-01-19T22:51:32.073Z,2.29
2023-01-19T22:54:34.027Z,2.13
2023-01-19T22:57:36.710Z,2.20
2023-01-19T23:00:38.957Z,2.15
2023-01-19T23:03:41.932Z,2.43
2023-01-19T23:06:47.028Z,2.23
2023-01-19T23:09:49.042Z,1.94
2023-01-19T23:12:51.067Z,1.97
2023-01-19T23:15:53.037Z,1.87
2023-01-19T23:18:57.223Z,1.93
2023-01-19T23:21:59.781Z,2.16
2023-01-19T23:25:01.736Z,2.26
2023-01-19T23:28:03.792Z,2.15
2023-01-19T23:31:22.910Z,2.23
2023-01-19T23:34:24.894Z,2.03
2023-01-19T23:37:28.262Z,2.00
2023-01-19T23:40:30.552Z,2.02
2023-01-19T23:43:33.911Z,2.07
2023-01-19T23:46:36.069Z,1.90
2023-01-19T23:49:40.259Z,2.01
2023-01-19T23:52:42.939Z,2.15
2023-01-19T23:55:44.888Z,2.14
2023-01-19T23:58:51.844Z,1.96
